Cornwall, Illinois
Current Conditions -  °F | °C
As of 2:47 AM on Friday 24 Oct 2014 (Local Time) from KMLI Reporting Station
Moderate Fog Moderate Fog  
Wind Chill: 43°   Ceiling: 200
Heat Index: 43°   Visibility: 0.5mi
Dew Point: 41°   Wind: 0mph
Humidity: 93%   Direction: NA
Pressure: 30.05"   Gusts: NA
Location:  41.4097°N, 90.0293°W
Report Text: KMLI 240747Z AUTO 00000KT 1/2SM R09/1000VP6000FT FG VV002 06/05 A3005 RMK AO2
Loading
Personal Weather Stations






























Interactive Weather Map
Tropical Storm Tracking
New forecast layout! Learn more

10-Day Weather Forecast

Advertisements
Track Severe Weather on mobile